createdAt,value
2022-11-16T00:02:28.672Z,99942.53
2022-11-16T00:06:05.372Z,99939.81
2022-11-16T00:09:22.658Z,99930.09
2022-11-16T00:13:20.054Z,99936.41
2022-11-16T00:16:22.741Z,99922.28
2022-11-16T00:19:47.914Z,99914.56
2022-11-16T00:26:54.257Z,99907.47
2022-11-16T00:30:38.161Z,99915.59
2022-11-16T00:38:34.201Z,99909.13
2022-11-16T00:42:15.156Z,99895.81
2022-11-16T00:46:44.928Z,99888.34
2022-11-16T00:50:22.603Z,99888.16
2022-11-16T00:54:05.852Z,99881.69
2022-11-16T01:01:56.175Z,99871.75
2022-11-16T01:05:36.680Z,99866.16
2022-11-16T01:09:13.063Z,99865.03
2022-11-16T01:12:59.240Z,99854.97
2022-11-16T01:16:51.089Z,99860.31
2022-11-16T01:20:44.092Z,99844.53
2022-11-16T01:24:23.528Z,99835.06
2022-11-16T01:28:07.598Z,99830.44
2022-11-16T01:31:43.870Z,99828.94
2022-11-16T01:35:17.632Z,99826.84
2022-11-16T01:39:12.442Z,99814.03
2022-11-16T01:42:57.868Z,99807.78
2022-11-16T01:46:43.818Z,99808.50
2022-11-16T01:50:37.708Z,99801.16
2022-11-16T01:54:14.855Z,99792.97
2022-11-16T01:57:40.485Z,99783.69
2022-11-16T02:01:16.952Z,99788.81
2022-11-16T02:04:54.743Z,99787.50
2022-11-16T02:13:34.787Z,99769.81
2022-11-16T02:17:32.016Z,99763.94
2022-11-16T02:21:11.153Z,99758.81
2022-11-16T02:25:18.818Z,99757.47
2022-11-16T02:29:45.459Z,99755.13
2022-11-16T02:38:09.462Z,99748.38
2022-11-16T02:42:00.028Z,99749.34
2022-11-16T02:45:42.230Z,99741.91
2022-11-16T02:54:05.108Z,99740.94
2022-11-16T03:02:27.294Z,99726.25
2022-11-16T03:06:41.654Z,99722.28
2022-11-16T03:10:35.851Z,99711.47
2022-11-16T03:14:17.398Z,99720.03
2022-11-16T03:17:45.412Z,99713.03
2022-11-16T03:21:55.866Z,99710.47
2022-11-16T03:25:44.263Z,99703.06
2022-11-16T03:29:52.164Z,99698.38
2022-11-16T03:45:49.545Z,99689.91
2022-11-16T03:49:38.292Z,99689.91
2022-11-16T03:58:11.428Z,99670.12
2022-11-16T04:01:59.268Z,99676.81
2022-11-16T04:06:21.840Z,99663.41
2022-11-16T04:18:24.634Z,99655.19
2022-11-16T04:22:40.366Z,99638.88
2022-11-16T04:26:49.129Z,99634.19
2022-11-16T04:30:59.706Z,99638.31
2022-11-16T04:35:02.696Z,99631.50
2022-11-16T04:38:47.746Z,99636.28
2022-11-16T04:42:29.431Z,99626.87
2022-11-16T04:46:24.463Z,99631.16
2022-11-16T04:49:57.707Z,99620.81
2022-11-16T04:53:42.086Z,99617.88
2022-11-16T04:57:02.474Z,99621.47
2022-11-16T05:00:41.417Z,99619.44
2022-11-16T05:03:49.962Z,99623.66
2022-11-16T05:07:22.001Z,99621.59
2022-11-16T05:11:10.065Z,99616.56
2022-11-16T05:15:10.387Z,99616.94
2022-11-16T05:19:17.443Z,99623.19
2022-11-16T05:27:32.641Z,99613.13
2022-11-16T05:31:09.033Z,99606.53
2022-11-16T05:34:46.960Z,99598.81
2022-11-16T05:38:35.828Z,99591.22
2022-11-16T05:42:17.339Z,99586.22
2022-11-16T05:45:52.524Z,99577.38
2022-11-16T05:49:37.774Z,99580.06
2022-11-16T05:53:22.637Z,99579.47
2022-11-16T05:57:08.071Z,99578.44
2022-11-16T06:00:51.655Z,99578.62
2022-11-16T06:04:27.860Z,99581.19
2022-11-16T06:16:14.334Z,99567.06
2022-11-16T06:20:01.291Z,99568.94
2022-11-16T06:24:00.528Z,99570.72
2022-11-16T06:27:51.146Z,99566.03
2022-11-16T06:32:04.061Z,99563.12
2022-11-16T06:35:41.403Z,99567.34
2022-11-16T06:39:24.945Z,99573.28
2022-11-16T06:43:07.838Z,99569.34
2022-11-16T06:46:53.057Z,99556.12
2022-11-16T06:50:32.663Z,99556.19
2022-11-16T06:54:24.334Z,99550.03
2022-11-16T07:01:38.662Z,99541.69
2022-11-16T07:05:21.411Z,99533.34
2022-11-16T07:09:25.311Z,99534.16
2022-11-16T07:12:36.329Z,99533.28
2022-11-16T07:16:59.341Z,99532.78
2022-11-16T07:20:18.971Z,99529.72
2022-11-16T07:23:25.375Z,99532.59
2022-11-16T07:26:57.329Z,99526.81
2022-11-16T07:30:21.240Z,99531.34
2022-11-16T07:33:25.971Z,99520.19
2022-11-16T07:41:06.234Z,99531.09
2022-11-16T07:44:34.019Z,99524.50
2022-11-16T07:48:11.408Z,99517.66
2022-11-16T07:51:58.896Z,99511.13
2022-11-16T07:55:08.642Z,99509.19
2022-11-16T07:58:36.314Z,99510.22
2022-11-16T08:01:50.231Z,99508.25
2022-11-16T08:05:17.685Z,99505.03
2022-11-16T08:08:28.469Z,99492.50
2022-11-16T08:11:39.178Z,99498.28
2022-11-16T08:15:28.659Z,99503.53
2022-11-16T08:18:42.941Z,99499.34
2022-11-16T08:22:26.135Z,99499.91
2022-11-16T08:26:09.794Z,99505.22
2022-11-16T08:34:09.532Z,99503.78
2022-11-16T08:37:14.506Z,99498.66
2022-11-16T08:40:29.410Z,99495.03
2022-11-16T08:43:53.647Z,99493.16
2022-11-16T08:47:02.019Z,99486.34
2022-11-16T08:50:44.124Z,99485.34
2022-11-16T08:54:20.179Z,99485.94
2022-11-16T08:57:45.626Z,99491.69
2022-11-16T09:01:12.727Z,99482.75
2022-11-16T09:04:18.743Z,99480.06
2022-11-16T09:07:22.319Z,99478.50
2022-11-16T09:10:33.225Z,99476.97
2022-11-16T09:13:37.499Z,99479.66
2022-11-16T09:16:40.791Z,99473.31
2022-11-16T09:20:06.576Z,99479.22
2022-11-16T09:23:20.938Z,99482.37
2022-11-16T09:26:57.674Z,99478.69
2022-11-16T09:30:00.220Z,99475.03
2022-11-16T09:36:36.868Z,99449.22
2022-11-16T09:39:42.491Z,99461.91
2022-11-16T09:42:54.028Z,99458.69
2022-11-16T09:46:46.003Z,99455.59
2022-11-16T09:50:03.633Z,99461.13
2022-11-16T09:53:36.043Z,99448.72
2022-11-16T09:56:42.319Z,99442.41
2022-11-16T09:59:57.171Z,99440.31
2022-11-16T10:03:20.682Z,99430.78
2022-11-16T10:06:31.195Z,99422.88
2022-11-16T10:09:40.708Z,99407.91
2022-11-16T10:13:22.026Z,99420.31
2022-11-16T10:16:41.446Z,99410.28
2022-11-16T10:19:55.104Z,99401.31
2022-11-16T10:23:28.982Z,99397.56
2022-11-16T10:27:00.491Z,99398.66
2022-11-16T10:30:10.625Z,99388.12
2022-11-16T10:33:18.993Z,99385.75
2022-11-16T10:36:27.538Z,99376.50
2022-11-16T10:39:34.850Z,99373.06
2022-11-16T10:42:58.186Z,99374.41
2022-11-16T10:46:05.545Z,99377.03
2022-11-16T10:49:25.245Z,99372.28
2022-11-16T10:52:31.599Z,99369.34
2022-11-16T10:55:34.738Z,99356.72
2022-11-16T10:58:56.470Z,99353.28
2022-11-16T11:02:01.418Z,99341.16
2022-11-16T11:05:16.209Z,99338.25
2022-11-16T11:08:33.691Z,99336.41
2022-11-16T11:11:59.602Z,99335.88
2022-11-16T11:15:12.645Z,99336.13
2022-11-16T11:18:23.383Z,99325.31
2022-11-16T11:21:27.954Z,99314.22
2022-11-16T11:24:44.423Z,99320.03
2022-11-16T11:28:26.854Z,99321.09
2022-11-16T11:31:55.092Z,99319.50
2022-11-16T11:35:03.110Z,99309.47
2022-11-16T11:38:08.351Z,99308.97
2022-11-16T11:41:19.443Z,99303.66
2022-11-16T11:44:30.987Z,99297.63
2022-11-16T11:47:58.461Z,99302.91
2022-11-16T11:51:35.939Z,99292.34
2022-11-16T11:55:05.962Z,99282.59
2022-11-16T11:58:18.843Z,99287.84
2022-11-16T12:01:48.573Z,99285.72
2022-11-16T12:05:11.633Z,99282.03
2022-11-16T12:08:45.987Z,99278.34
2022-11-16T12:12:04.839Z,99269.91
2022-11-16T12:15:36.412Z,99281.00
2022-11-16T12:19:38.425Z,99276.22
2022-11-16T12:23:11.309Z,99271.22
2022-11-16T12:26:34.875Z,99263.03
2022-11-16T12:29:37.734Z,99272.53
2022-11-16T12:33:14.724Z,99269.66
2022-11-16T12:37:07.744Z,99262.53
2022-11-16T12:41:02.183Z,99265.44
2022-11-16T12:44:53.085Z,99263.03
2022-11-16T12:48:15.867Z,99256.16
2022-11-16T12:51:50.529Z,99251.97
2022-11-16T12:55:27.097Z,99248.00
2022-11-16T12:59:27.847Z,99246.69
2022-11-16T13:03:11.346Z,99253.53
2022-11-16T13:14:09.913Z,99245.66
2022-11-16T13:15:02.167Z,99246.69
2022-11-16T13:18:50.352Z,99242.47
2022-11-16T13:22:28.175Z,99241.41
2022-11-16T13:30:24.787Z,99237.72
2022-11-16T13:34:22.972Z,99238.25
2022-11-16T13:38:01.914Z,99232.97
2022-11-16T13:41:36.773Z,99236.41
2022-11-16T13:45:20.311Z,99227.69
2022-11-16T13:49:01.996Z,99229.28
2022-11-16T14:00:12.652Z,99224.25
2022-11-16T14:03:35.522Z,99229.81
2022-11-16T14:11:00.553Z,99223.47
2022-11-16T14:26:03.015Z,99212.41
2022-11-16T14:46:39.879Z,99206.06
2022-11-16T14:50:40.935Z,99197.62
2022-11-16T15:01:26.690Z,99187.06
2022-11-16T15:04:49.728Z,99193.94
2022-11-16T15:08:33.978Z,99190.25
2022-11-16T15:12:23.520Z,99179.69
2022-11-16T15:16:19.965Z,99188.41
2022-11-16T15:19:58.853Z,99187.31
2022-11-16T15:23:30.603Z,99182.84
2022-11-16T15:26:49.200Z,99176.78
2022-11-16T15:30:34.381Z,99173.84
2022-11-16T15:34:16.630Z,99174.69
2022-11-16T15:37:34.913Z,99172.84
2022-11-16T15:40:55.417Z,99172.84
2022-11-16T15:44:37.253Z,99170.16
2022-11-16T15:48:22.504Z,99174.94
2022-11-16T15:52:07.031Z,99169.66
2022-11-16T15:55:46.936Z,99168.06
2022-11-16T15:59:34.427Z,99162.00
2022-11-16T16:03:04.572Z,99165.44
2022-11-16T16:07:06.859Z,99165.44
2022-11-16T16:10:42.087Z,99164.38
2022-11-16T16:14:09.559Z,99166.47
2022-11-16T16:17:39.172Z,99164.38
2022-11-16T16:21:17.399Z,99159.09
2022-11-16T16:25:37.054Z,99160.66
2022-11-16T16:28:41.820Z,99160.41
2022-11-16T16:32:50.359Z,99159.09
2022-11-16T16:36:25.410Z,99160.66
2022-11-16T16:40:00.784Z,99159.62
2022-11-16T16:43:37.087Z,99162.53
2022-11-16T16:47:11.625Z,99162.25
2022-11-16T16:50:43.593Z,99154.34
2022-11-16T16:54:16.484Z,99156.97
2022-11-16T16:57:51.153Z,99154.34
2022-11-16T17:01:29.006Z,99150.66
2022-11-16T17:05:02.610Z,99146.97
2022-11-16T17:12:11.557Z,99141.69
2022-11-16T17:15:43.495Z,99149.06
2022-11-16T17:19:19.318Z,99140.09
2022-11-16T17:22:36.034Z,99136.69
2022-11-16T17:25:42.523Z,99133.25
2022-11-16T17:33:11.461Z,99131.16
2022-11-16T17:36:15.369Z,99133.78
2022-11-16T17:39:40.003Z,99137.72
2022-11-16T17:43:15.875Z,99137.22
2022-11-16T17:46:40.904Z,99133.25
2022-11-16T17:49:58.691Z,99137.22
2022-11-16T17:53:36.821Z,99136.44
2022-11-16T17:57:04.940Z,99130.63
2022-11-16T18:00:50.090Z,99134.84
2022-11-16T18:04:25.976Z,99130.63
2022-11-16T18:07:52.927Z,99131.16
2022-11-16T18:11:27.537Z,99125.09
2022-11-16T18:15:21.419Z,99131.16
2022-11-16T18:18:30.708Z,99128.25
2022-11-16T18:22:11.637Z,99126.41
2022-11-16T18:25:50.696Z,99126.13
2022-11-16T18:29:22.274Z,99116.37
2022-11-16T18:33:22.779Z,99115.09
2022-11-16T18:37:00.119Z,99115.34
2022-11-16T18:40:38.475Z,99120.06
2022-11-16T18:48:26.586Z,99120.88
2022-11-16T18:52:03.642Z,99114.53
2022-11-16T18:59:20.018Z,99112.16
2022-11-16T19:07:15.805Z,99108.22
2022-11-16T19:10:39.479Z,99105.34
2022-11-16T19:14:17.226Z,99100.06
2022-11-16T19:18:20.484Z,99095.84
2022-11-16T19:21:39.411Z,99109.25
2022-11-16T19:29:16.770Z,99100.56
2022-11-16T19:33:05.278Z,99096.34
2022-11-16T19:37:14.821Z,99096.09
2022-11-16T19:40:51.373Z,99091.06
2022-11-16T19:44:30.223Z,99099.25
2022-11-16T19:48:10.504Z,99098.97
2022-11-16T19:51:31.474Z,99098.97
2022-11-16T19:55:16.235Z,99099.50
2022-11-16T19:59:03.263Z,99086.87
2022-11-16T20:02:29.907Z,99091.63
2022-11-16T20:06:23.592Z,99097.69
2022-11-16T20:10:12.714Z,99093.72
2022-11-16T20:13:48.800Z,99097.41
2022-11-16T20:17:22.786Z,99095.28
2022-11-16T20:21:02.737Z,99101.09
2022-11-16T20:24:21.078Z,99102.69
2022-11-16T20:28:11.279Z,99109.00
2022-11-16T20:49:53.450Z,99077.91
2022-11-16T20:53:41.139Z,99091.06
2022-11-16T20:57:15.914Z,99088.47
2022-11-16T21:01:11.335Z,99083.94
2022-11-16T21:04:57.525Z,99085.03
2022-11-16T21:08:28.013Z,99082.66
2022-11-16T21:16:24.455Z,99080.56
2022-11-16T21:20:25.861Z,99071.56
2022-11-16T21:24:02.034Z,99068.69
2022-11-16T21:27:34.658Z,99065.25
2022-11-16T21:31:25.868Z,99072.66
2022-11-16T21:35:05.919Z,99068.94
2022-11-16T21:38:28.016Z,99063.16
2022-11-16T21:42:43.371Z,99060.53
2022-11-16T21:50:35.270Z,99045.22
2022-11-16T21:54:11.812Z,99037.88
2022-11-16T21:58:16.367Z,99032.34
2022-11-16T22:02:02.593Z,99025.22
2022-11-16T22:06:03.385Z,99033.66
2022-11-16T22:09:42.570Z,99034.97
2022-11-16T22:17:07.489Z,99008.88
2022-11-16T22:21:11.855Z,99023.66
2022-11-16T22:24:53.344Z,99043.13
2022-11-16T22:49:06.047Z,99056.84
2022-11-16T23:06:28.912Z,99050.50
2022-11-16T23:10:03.498Z,99046.81
2022-11-16T23:17:39.798Z,99048.41
2022-11-16T23:29:14.936Z,99034.44
2022-11-16T23:32:48.287Z,99027.56
2022-11-16T23:36:20.324Z,99037.84
2022-11-16T23:39:58.874Z,99041.53
2022-11-16T23:43:47.417Z,99032.84
2022-11-16T23:47:26.561Z,99044.16
2022-11-16T23:54:40.254Z,99038.09
2022-11-16T23:58:28.952Z,99035.47
